Time;durP1;ratioP1;P1;durP2;ratioP2;P2;SDS_P1;SDS_P2;PMS_P1;PMS_P2;Temp;Humidity;BMP_temperature;BMP_pressure;BME280_temperature;BME280_humidity;BME280_pressure;Samples;Min_cycle;Max_cycle;Signal;HPM_P1;HPM_P2
2020/12/13 00:01:11;;;;;;;;;;;;;;;19.72;45.31;99719.41;5097478;28;923;-47
2020/12/13 00:03:37;;;;;;;;;;;;;;;19.68;45.17;99730.28;5097073;28;969;-49
2020/12/13 00:06:02;;;;;;;;;;;;;;;19.82;45.13;99725.50;5097415;28;751;-52
2020/12/13 00:08:27;;;;;;;;;;;;;;;19.77;44.95;99728.34;5097343;28;759;-52
2020/12/13 00:10:56;;;;;;;;;;;;;;;19.67;45.43;99739.69;5097324;28;798;-51
2020/12/13 00:13:22;;;;;;;;;;;;;;;19.91;44.87;99741.22;5096841;28;1913;-54
2020/12/13 00:15:47;;;;;;;;;;;;;;;19.64;45.16;99734.81;5113272;28;1177;-51
2020/12/13 00:18:12;;;;;;;;;;;;;;;19.61;45.56;99741.75;5117374;28;1096;-52
2020/12/13 00:20:38;;;;;;;;;;;;;;;19.60;45.32;99744.84;5099141;28;948;-51
2020/12/13 00:23:03;;;;;;;;;;;;;;;19.56;45.58;99749.38;5097117;28;867;-51
2020/12/13 00:25:29;;;;;;;;;;;;;;;19.67;45.17;99751.53;5096873;28;957;-53
2020/12/13 00:27:54;;;;;;;;;;;;;;;19.60;45.53;99745.66;5096922;28;747;-49
2020/12/13 00:30:20;;;;;;;;;;;;;;;19.55;45.44;99751.31;5097003;28;822;-52
2020/12/13 00:32:45;;;;;;;;;;;;;;;19.66;45.12;99755.41;5096787;28;858;-54
2020/12/13 00:35:10;;;;;;;;;;;;;;;19.72;45.21;99752.53;5096738;28;1983;-47
2020/12/13 00:37:36;;;;;;;;;;;;;;;19.65;45.20;99747.47;5097217;28;750;-51
2020/12/13 00:40:01;;;;;;;;;;;;;;;19.82;44.73;99739.28;5096730;28;751;-53
2020/12/13 00:42:27;;;;;;;;;;;;;;;19.82;44.69;99735.69;5096808;28;874;-50
2020/12/13 00:44:53;;;;;;;;;;;;;;;19.93;44.42;99747.25;5096876;28;823;-50
2020/12/13 00:47:18;;;;;;;;;;;;;;;19.82;44.71;99750.31;5096634;28;810;-50
2020/12/13 00:49:44;;;;;;;;;;;;;;;19.74;45.03;99745.56;5096446;28;946;-53
2020/12/13 00:52:09;;;;;;;;;;;;;;;19.77;44.89;99742.16;5096972;28;783;-53
2020/12/13 00:54:35;;;;;;;;;;;;;;;19.74;45.19;99745.56;5095470;28;1914;-49
2020/12/13 00:57:01;;;;;;;;;;;;;;;19.55;45.38;99748.56;5095741;28;1212;-50
2020/12/13 00:59:26;;;;;;;;;;;;;;;19.70;45.10;99750.09;5102188;28;684;-50
2020/12/13 01:01:52;;;;;;;;;;;;;;;19.74;45.00;99745.56;5103327;28;775;-49
2020/12/13 01:04:17;;;;;;;;;;;;;;;19.54;45.32;99727.63;5102999;28;972;-49
2020/12/13 01:06:43;;;;;;;;;;;;;;;19.65;45.03;99739.19;5103699;28;779;-54
2020/12/13 01:09:08;;;;;;;;;;;;;;;19.61;45.27;99735.44;5103536;28;826;-49
2020/12/13 01:11:34;;;;;;;;;;;;;;;19.62;45.25;99737.06;5103313;28;743;-51
2020/12/13 01:13:59;;;;;;;;;;;;;;;19.63;45.12;99735.94;5103857;28;2027;-50
2020/12/13 01:16:25;;;;;;;;;;;;;;;19.51;45.39;99738.50;5124013;28;805;-51
2020/12/13 01:18:51;;;;;;;;;;;;;;;19.68;44.94;99735.78;5120353;28;1054;-48
2020/12/13 01:21:17;;;;;;;;;;;;;;;19.59;45.14;99741.28;5103008;28;874;-49
2020/12/13 01:23:42;;;;;;;;;;;;;;;19.61;45.11;99744.53;5103330;28;795;-46
2020/12/13 01:26:14;;;;;;;;;;;;;;;19.63;45.04;99750.53;5103158;28;862;-48
2020/12/13 01:28:40;;;;;;;;;;;;;;;19.60;45.03;99753.13;5102935;28;831;-53
2020/12/13 01:31:06;;;;;;;;;;;;;;;19.50;45.26;99751.44;5103189;28;731;-50
2020/12/13 01:33:31;;;;;;;;;;;;;;;19.28;45.81;99752.34;5102630;28;1905;-56
2020/12/13 01:35:57;;;;;;;;;;;;;;;19.64;45.23;99754.09;5103205;28;810;-51
2020/12/13 01:38:22;;;;;;;;;;;;;;;19.38;45.67;99765.84;5103044;28;827;-50
2020/12/13 01:40:48;;;;;;;;;;;;;;;19.50;45.19;99762.47;5102910;28;751;-51
2020/12/13 01:43:13;;;;;;;;;;;;;;;19.43;45.38;99754.69;5102907;28;791;-50
2020/12/13 01:45:39;;;;;;;;;;;;;;;19.86;44.57;99752.44;5103112;28;755;-51
2020/12/13 01:48:04;;;;;;;;;;;;;;;20.61;42.88;99746.81;5103166;28;763;-50
2020/12/13 01:53:14;;;;;;;;;;;;;;;19.92;44.42;99749.22;5103172;28;764;-52
2020/12/13 01:55:43;;;;;;;;;;;;;;;19.49;45.36;99749.84;5101551;28;970;-52
2020/12/13 01:58:09;;;;;;;;;;;;;;;19.36;46.00;99746.03;5103100;28;848;-50
2020/12/13 02:00:34;;;;;;;;;;;;;;;20.58;43.01;99736.41;5102296;28;781;-51
2020/12/13 02:03:00;;;;;;;;;;;;;;;20.06;43.81;99731.69;5102575;28;811;-57
2020/12/13 02:05:26;;;;;;;;;;;;;;;19.93;44.21;99731.50;5102665;28;957;-47
2020/12/13 02:07:51;;;;;;;;;;;;;;;19.57;45.01;99735.28;5101647;28;732;-49
2020/12/13 02:10:17;;;;;;;;;;;;;;;19.08;46.10;99734.41;5098351;28;827;-50
2020/12/13 02:12:42;;;;;;;;;;;;;;;19.89;44.46;99733.28;5099823;28;775;-53
2020/12/13 02:15:08;;;;;;;;;;;;;;;20.38;42.95;99746.97;5110261;28;1967;-56
2020/12/13 02:17:36;;;;;;;;;;;;;;;19.93;44.42;99747.25;5119840;28;900;-50
2020/12/13 02:20:12;;;;;;;;;;;;;;;19.89;44.29;99746.25;5106536;28;1193;-50
2020/12/13 02:22:38;;;;;;;;;;;;;;;19.31;45.56;99748.97;5099490;28;803;-50
2020/12/13 02:25:10;;;;;;;;;;;;;;;19.89;44.54;99751.78;5099242;28;785;-54
2020/12/13 02:27:35;;;;;;;;;;;;;;;20.47;42.73;99760.81;5099323;28;854;-49
2020/12/13 02:30:01;;;;;;;;;;;;;;;20.15;43.71;99754.59;5099071;28;853;-51
2020/12/13 02:32:26;;;;;;;;;;;;;;;20.08;43.70;99760.59;5099280;28;790;-52
2020/12/13 02:34:52;;;;;;;;;;;;;;;19.45;45.16;99766.19;5098651;28;1963;-56
2020/12/13 02:37:17;;;;;;;;;;;;;;;19.13;46.30;99770.09;5098861;28;831;-46
2020/12/13 02:39:43;;;;;;;;;;;;;;;19.97;44.21;99768.34;5099078;28;811;-51
2020/12/13 02:42:08;;;;;;;;;;;;;;;20.53;42.58;99770.53;5099023;28;846;-48
2020/12/13 02:44:33;;;;;;;;;;;;;;;20.38;43.36;99771.00;5098794;28;747;-54
2020/12/13 02:46:59;;;;;;;;;;;;;;;20.09;43.87;99773.25;5098961;28;751;-52
2020/12/13 02:49:24;;;;;;;;;;;;;;;19.47;45.16;99780.50;5098538;28;1004;-51
2020/12/13 02:51:50;;;;;;;;;;;;;;;19.13;46.10;99787.44;5098610;28;735;-50
2020/12/13 02:54:15;;;;;;;;;;;;;;;19.51;45.41;99779.84;5098866;28;1968;-52
2020/12/13 02:56:41;;;;;;;;;;;;;;;20.43;43.13;99776.38;5098597;28;838;-52
2020/12/13 02:59:07;;;;;;;;;;;;;;;20.04;44.02;99776.16;5098635;28;799;-51
2020/12/13 03:01:32;;;;;;;;;;;;;;;20.00;44.13;99780.69;5098591;28;890;-51
2020/12/13 03:03:58;;;;;;;;;;;;;;;19.80;44.38;99768.31;5098076;28;918;-48
2020/12/13 03:06:23;;;;;;;;;;;;;;;19.14;45.81;99778.03;5098408;28;744;-51
2020/12/13 03:08:49;;;;;;;;;;;;;;;19.85;44.67;99779.19;5098755;28;775;-51
2020/12/13 03:11:19;;;;;;;;;;;;;;;20.54;42.61;99774.09;5098298;28;782;-52
2020/12/13 03:13:45;;;;;;;;;;;;;;;20.07;43.99;99756.19;5098235;28;1971;-52
2020/12/13 03:16:10;;;;;;;;;;;;;;;19.91;44.06;99774.34;5117664;28;1153;-54
2020/12/13 03:18:36;;;;;;;;;;;;;;;19.61;44.84;99782.31;5117128;28;1007;-51
2020/12/13 03:21:01;;;;;;;;;;;;;;;19.25;45.88;99777.78;5097873;28;747;-50
2020/12/13 03:23:26;;;;;;;;;;;;;;;19.31;45.80;99785.59;5098164;28;815;-53
2020/12/13 03:25:52;;;;;;;;;;;;;;;19.44;45.25;99791.34;5097876;28;871;-51
2020/12/13 03:28:17;;;;;;;;;;;;;;;19.46;45.47;99800.09;5098200;28;839;-54
2020/12/13 03:30:43;;;;;;;;;;;;;;;19.34;45.63;99800.69;5098055;28;803;-48
2020/12/13 03:33:08;;;;;;;;;;;;;;;19.37;45.50;99804.75;5098383;28;778;-51
2020/12/13 03:35:34;;;;;;;;;;;;;;;19.57;45.16;99801.47;5097694;28;1914;-54
2020/12/13 03:37:59;;;;;;;;;;;;;;;20.26;43.41;99799.25;5097801;28;799;-53
2020/12/13 03:40:24;;;;;;;;;;;;;;;20.64;42.52;99798.66;5097792;28;763;-53
2020/12/13 03:42:50;;;;;;;;;;;;;;;20.04;43.87;99809.28;5097859;28;803;-53
2020/12/13 03:45:16;;;;;;;;;;;;;;;19.87;44.19;99812.00;5098015;28;839;-48
2020/12/13 03:47:41;;;;;;;;;;;;;;;19.48;44.93;99817.94;5097929;28;827;-51
2020/12/13 03:50:07;;;;;;;;;;;;;;;19.34;45.54;99830.22;5097347;28;1005;-51
2020/12/13 03:52:32;;;;;;;;;;;;;;;20.30;43.45;99833.34;5097367;28;727;-47
2020/12/13 03:54:58;;;;;;;;;;;;;;;20.44;42.78;99834.03;5097503;28;1969;-46
2020/12/13 03:57:23;;;;;;;;;;;;;;;20.01;43.70;99832.00;5096029;28;866;-46
2020/12/13 03:59:48;;;;;;;;;;;;;;;19.79;44.55;99835.63;5096655;28;823;-57
2020/12/13 04:02:14;;;;;;;;;;;;;;;19.61;44.97;99830.00;5097279;28;887;-51
2020/12/13 04:04:39;;;;;;;;;;;;;;;19.15;46.13;99845.81;5096939;28;929;-55
2020/12/13 04:07:05;;;;;;;;;;;;;;;20.07;44.11;99847.25;5097247;28;731;-53
2020/12/13 04:09:30;;;;;;;;;;;;;;;20.37;43.31;99844.75;5097384;28;775;-49
2020/12/13 04:11:55;;;;;;;;;;;;;;;19.98;44.26;99849.19;5097091;28;807;-57
2020/12/13 04:14:21;;;;;;;;;;;;;;;19.95;44.07;99847.88;5100905;28;1914;-55
2020/12/13 04:16:46;;;;;;;;;;;;;;;19.47;45.32;99843.91;5117583;28;750;-57
2020/12/13 04:19:12;;;;;;;;;;;;;;;19.51;45.26;99835.00;5110953;28;1027;-51
2020/12/13 04:21:38;;;;;;;;;;;;;;;20.42;43.06;99841.03;5096992;28;858;-53
2020/12/13 04:24:04;;;;;;;;;;;;;;;20.22;43.53;99842.47;5097231;28;889;-51
2020/12/13 04:26:29;;;;;;;;;;;;;;;19.97;44.11;99836.53;5096649;28;815;-51
2020/12/13 04:28:54;;;;;;;;;;;;;;;19.75;44.58;99846.47;5096760;28;883;-51
2020/12/13 04:31:21;;;;;;;;;;;;;;;19.09;46.07;99840.75;5096949;28;819;-53
2020/12/13 04:33:46;;;;;;;;;;;;;;;19.55;45.31;99841.50;5095471;28;1974;-59
2020/12/13 04:36:12;;;;;;;;;;;;;;;20.61;42.66;99827.72;5096761;28;838;-60
2020/12/13 04:38:37;;;;;;;;;;;;;;;21.10;41.54;99816.53;5096761;28;830;-59
2020/12/13 04:41:03;;;;;;;;;;;;;;;20.67;42.34;99820.91;5096766;28;830;-60
2020/12/13 04:43:28;;;;;;;;;;;;;;;20.35;43.36;99833.22;5097026;28;811;-59
2020/12/13 04:45:54;;;;;;;;;;;;;;;20.00;44.08;99835.88;5095399;28;787;-54
2020/12/13 04:48:20;;;;;;;;;;;;;;;19.42;44.95;99844.03;5096890;28;794;-52
2020/12/13 04:50:45;;;;;;;;;;;;;;;19.22;45.17;99847.31;5096409;28;925;-56
2020/12/13 04:53:11;;;;;;;;;;;;;;;19.87;44.46;99836.81;5095103;28;1036;-57
2020/12/13 04:55:38;;;;;;;;;;;;;;;20.57;42.66;99837.78;5096633;28;1898;-51
2020/12/13 04:58:03;;;;;;;;;;;;;;;20.27;43.31;99828.47;5096349;28;831;-57
2020/12/13 05:00:29;;;;;;;;;;;;;;;20.28;43.44;99839.19;5096967;28;767;-59
2020/12/13 05:02:54;;;;;;;;;;;;;;;19.51;45.13;99852.34;5095436;28;768;-54
2020/12/13 05:05:20;;;;;;;;;;;;;;;19.13;45.81;99845.31;5094747;28;1338;-50
2020/12/13 05:07:46;;;;;;;;;;;;;;;20.05;44.07;99840.44;5096679;28;747;-52
2020/12/13 05:10:11;;;;;;;;;;;;;;;20.62;42.51;99842.34;5096724;28;789;-50
2020/12/13 05:12:36;;;;;;;;;;;;;;;20.27;43.51;99840.34;5096356;28;874;-52
2020/12/13 05:15:02;;;;;;;;;;;;;;;20.02;43.77;99830.03;5105986;28;1906;-50
2020/12/13 05:17:28;;;;;;;;;;;;;;;19.54;44.89;99823.34;5116851;28;735;-52
2020/12/13 05:19:53;;;;;;;;;;;;;;;19.03;46.22;99833.72;5103444;28;1541;-51
2020/12/13 05:22:19;;;;;;;;;;;;;;;20.13;43.82;99823.09;5096542;28;800;-58
2020/12/13 05:24:45;;;;;;;;;;;;;;;20.55;42.75;99828.19;5096394;28;822;-53
2020/12/13 05:27:10;;;;;;;;;;;;;;;20.16;43.68;99837.06;5096176;28;787;-54
2020/12/13 05:29:38;;;;;;;;;;;;;;;19.95;43.81;99841.53;5096196;28;783;-59
2020/12/13 05:32:17;;;;;;;;;;;;;;;19.49;44.87;99849.09;5095006;28;1145;-59
2020/12/13 05:34:45;;;;;;;;;;;;;;;19.65;44.77;99836.50;5095602;28;1910;-52
2020/12/13 05:37:17;;;;;;;;;;;;;;;20.61;42.71;99843.50;5096254;28;902;-54
2020/12/13 05:39:52;;;;;;;;;;;;;;;20.18;43.65;99848.59;5096214;28;794;-53
2020/12/13 05:42:24;;;;;;;;;;;;;;;20.07;43.62;99847.25;5095980;28;803;-51
2020/12/13 05:45:16;;;;;;;;;;;;;;;19.53;44.78;99855.63;5098120;28;826;-52
2020/12/13 05:50:29;;;;;;;;;;;;;;;20.14;43.84;99847.59;5099482;28;996;-48
2020/12/13 05:52:54;;;;;;;;;;;;;;;20.26;43.14;99858.03;5099910;28;799;-51
2020/12/13 05:55:20;;;;;;;;;;;;;;;20.11;43.70;99858.50;5099587;28;1906;-55
2020/12/13 05:57:48;;;;;;;;;;;;;;;19.89;44.19;99862.13;5100002;28;722;-60
2020/12/13 06:00:14;;;;;;;;;;;;;;;19.39;45.25;99871.41;5099763;28;771;-52
2020/12/13 06:02:39;;;;;;;;;;;;;;;19.19;45.84;99856.22;5098432;28;779;-59
2020/12/13 06:05:05;;;;;;;;;;;;;;;19.29;45.72;99865.03;5097925;28;957;-52
2020/12/13 06:07:30;;;;;;;;;;;;;;;19.59;45.01;99859.84;5099682;28;743;-52
2020/12/13 06:09:56;;;;;;;;;;;;;;;19.43;45.14;99858.63;5098121;28;747;-54
2020/12/13 06:12:21;;;;;;;;;;;;;;;19.39;45.19;99865.91;5081715;28;735;-54
2020/12/13 06:14:47;;;;;;;;;;;;;;;19.88;43.99;99872.38;5106356;28;1909;-53
2020/12/13 06:17:12;;;;;;;;;;;;;;;20.51;42.45;99870.28;5118698;28;839;-53
2020/12/13 06:19:38;;;;;;;;;;;;;;;20.11;43.26;99875.84;5109699;28;1142;-52
2020/12/13 06:22:04;;;;;;;;;;;;;;;19.99;43.84;99875.63;5099484;28;1018;-54
2020/12/13 06:24:30;;;;;;;;;;;;;;;19.49;45.02;99891.28;5099057;28;779;-54
2020/12/13 06:26:55;;;;;;;;;;;;;;;19.12;45.80;99890.50;5098968;28;835;-52
2020/12/13 06:29:21;;;;;;;;;;;;;;;19.46;45.10;99893.81;5099008;28;743;-50
2020/12/13 06:31:47;;;;;;;;;;;;;;;20.41;42.79;99894.63;5098714;28;790;-47
2020/12/13 06:34:12;;;;;;;;;;;;;;;20.15;43.31;99895.34;5098293;28;1979;-50
2020/12/13 06:36:38;;;;;;;;;;;;;;;19.91;43.80;99896.56;5098756;28;1005;-52
2020/12/13 06:39:23;;;;;;;;;;;;;;;19.75;44.32;99896.09;5098540;28;834;-49
2020/12/13 06:41:52;;;;;;;;;;;;;;;19.31;45.37;99900.56;5098394;28;1701;-50
2020/12/13 06:44:18;;;;;;;;;;;;;;;20.18;43.30;99897.47;5098927;28;850;-59
2020/12/13 06:46:43;;;;;;;;;;;;;;;20.60;42.16;99906.19;5098348;28;819;-51
2020/12/13 06:49:09;;;;;;;;;;;;;;;20.04;43.75;99908.63;5098151;28;985;-58
2020/12/13 06:51:36;;;;;;;;;;;;;;;19.83;43.87;99917.44;5098335;28;838;-51
2020/12/13 06:54:02;;;;;;;;;;;;;;;19.43;44.96;99911.84;5098210;28;1914;-53
2020/12/13 06:56:28;;;;;;;;;;;;;;;19.20;45.46;99915.72;5097995;28;862;-53
2020/12/13 06:58:57;;;;;;;;;;;;;;;20.07;43.78;99912.69;5098200;28;830;-54
2020/12/13 07:01:27;;;;;;;;;;;;;;;20.38;42.63;99918.16;5098164;28;850;-51
2020/12/13 07:03:52;;;;;;;;;;;;;;;20.01;43.54;99920.31;5097874;28;992;-55
2020/12/13 07:06:26;;;;;;;;;;;;;;;19.88;43.81;99922.03;5098354;28;842;-58
2020/12/13 07:08:54;;;;;;;;;;;;;;;19.33;45.05;99934.13;5098242;28;799;-49
2020/12/13 07:11:22;;;;;;;;;;;;;;;19.15;45.99;99933.16;5098139;28;779;-55
2020/12/13 07:13:48;;;;;;;;;;;;;;;20.25;43.26;99935.66;5097784;28;1922;-51
2020/12/13 07:16:31;;;;;;;;;;;;;;;20.27;42.83;99927.88;5117662;28;1010;-49
2020/12/13 07:19:10;;;;;;;;;;;;;;;20.02;43.69;99927.47;5114125;28;1031;-48
2020/12/13 07:21:36;;;;;;;;;;;;;;;19.59;44.60;99930.75;5097739;28;811;-49
2020/12/13 07:24:01;;;;;;;;;;;;;;;19.20;45.50;99926.75;5097777;28;835;-47
2020/12/13 07:26:27;;;;;;;;;;;;;;;19.18;45.63;99931.72;5097681;28;807;-50
2020/12/13 07:28:53;;;;;;;;;;;;;;;20.22;43.07;99930.78;5097952;28;831;-52
2020/12/13 07:31:19;;;;;;;;;;;;;;;20.16;43.29;99925.41;5097714;28;807;-50
2020/12/13 07:33:48;;;;;;;;;;;;;;;20.04;43.36;99929.91;5097227;28;1918;-52
2020/12/13 07:36:13;;;;;;;;;;;;;;;19.76;44.12;99941.06;5097452;28;811;-49
2020/12/13 07:38:39;;;;;;;;;;;;;;;19.27;44.96;99949.16;5097703;28;803;-52
2020/12/13 07:41:33;;;;;;;;;;;;;;;20.12;43.46;99940.97;5097436;28;803;-51
2020/12/13 07:44:00;;;;;;;;;;;;;;;20.36;42.76;99939.75;5084311;28;1327;-59
2020/12/13 07:46:25;;;;;;;;;;;;;;;20.07;43.37;99932.81;5097412;28;795;-49
2020/12/13 07:49:00;;;;;;;;;;;;;;;19.87;43.87;99947.19;5096885;28;922;-47
2020/12/13 07:51:25;;;;;;;;;;;;;;;19.38;44.99;99953.31;5097295;28;771;-47
2020/12/13 07:53:51;;;;;;;;;;;;;;;19.25;45.32;99959.69;5097244;28;1905;-49
2020/12/13 07:56:25;;;;;;;;;;;;;;;19.42;44.95;99956.25;5097024;28;842;-51
2020/12/13 07:58:51;;;;;;;;;;;;;;;19.61;44.52;99950.53;5097254;28;810;-47
2020/12/13 08:01:17;;;;;;;;;;;;;;;19.70;44.22;99958.88;5096907;28;838;-45
2020/12/13 08:03:43;;;;;;;;;;;;;;;19.72;44.14;99951.91;5096867;28;934;-50
2020/12/13 08:06:08;;;;;;;;;;;;;;;19.45;44.81;99953.69;5097241;28;801;-52
2020/12/13 08:08:40;;;;;;;;;;;;;;;19.36;45.10;99939.00;5096049;28;767;-49
2020/12/13 08:11:12;;;;;;;;;;;;;;;19.39;45.01;99945.84;5096893;28;759;-48
2020/12/13 08:13:47;;;;;;;;;;;;;;;19.53;44.62;99932.81;5096939;28;1913;-48
2020/12/13 08:16:13;;;;;;;;;;;;;;;19.69;44.27;99937.94;5116257;28;1144;-49
2020/12/13 08:18:40;;;;;;;;;;;;;;;19.41;44.78;99943.59;5114191;28;1178;-52
2020/12/13 08:21:06;;;;;;;;;;;;;;;19.41;44.86;99949.91;5095561;28;724;-48
2020/12/13 08:23:31;;;;;;;;;;;;;;;20.32;42.81;99941.53;5095465;28;855;-48
2020/12/13 08:25:57;;;;;;;;;;;;;;;20.29;42.52;99944.94;5095223;28;873;-49
2020/12/13 08:28:22;;;;;;;;;;;;;;;19.94;43.38;99936.50;5095833;28;827;-51
2020/12/13 08:30:48;;;;;;;;;;;;;;;19.53;44.58;99941.09;5095392;28;815;-56
2020/12/13 08:33:14;;;;;;;;;;;;;;;19.04;45.58;99938.13;5096528;28;826;-54
2020/12/13 08:35:39;;;;;;;;;;;;;;;20.09;43.39;99944.38;5094944;28;1902;-51
2020/12/13 08:38:04;;;;;;;;;;;;;;;20.31;42.72;99939.91;5096356;28;835;-50
2020/12/13 08:40:36;;;;;;;;;;;;;;;20.02;43.22;99937.66;5096415;28;870;-49
2020/12/13 08:43:02;;;;;;;;;;;;;;;19.71;44.15;99936.47;5096540;28;799;-51
2020/12/13 08:45:27;;;;;;;;;;;;;;;19.48;44.71;99931.00;5096235;28;795;-48
2020/12/13 08:47:58;;;;;;;;;;;;;;;19.22;45.21;99941.81;5096412;28;850;-49
2020/12/13 08:50:23;;;;;;;;;;;;;;;19.62;44.58;99935.63;5096205;28;941;-47
2020/12/13 08:52:48;;;;;;;;;;;;;;;20.47;42.67;99930.03;5096134;28;826;-45
2020/12/13 08:55:14;;;;;;;;;;;;;;;20.03;43.42;99934.59;5096335;28;1955;-48
2020/12/13 08:57:45;;;;;;;;;;;;;;;19.98;43.45;99935.53;5094891;28;1275;-50
2020/12/13 09:00:14;;;;;;;;;;;;;;;19.44;44.58;99935.50;5096153;28;720;-46
2020/12/13 09:02:42;;;;;;;;;;;;;;;19.51;44.78;99934.25;5096220;28;838;-49
2020/12/13 09:05:07;;;;;;;;;;;;;;;20.46;42.42;99936.69;5094626;28;1439;-51
2020/12/13 09:07:33;;;;;;;;;;;;;;;20.31;42.54;99939.91;5096184;28;795;-46
2020/12/13 09:10:11;;;;;;;;;;;;;;;19.97;43.63;99936.66;5096125;28;768;-51
2020/12/13 09:12:36;;;;;;;;;;;;;;;19.63;44.29;99931.75;5095936;28;827;-47
2020/12/13 09:15:12;;;;;;;;;;;;;;;19.30;45.31;99935.56;5105725;28;1968;-48
2020/12/13 09:17:38;;;;;;;;;;;;;;;19.10;45.50;99934.13;5116541;28;807;-47
2020/12/13 09:20:03;;;;;;;;;;;;;;;20.16;43.13;99928.16;5105006;28;1608;-47
2020/12/13 09:22:29;;;;;;;;;;;;;;;20.32;42.51;99919.44;5100182;28;843;-47
2020/12/13 09:24:54;;;;;;;;;;;;;;;19.72;44.05;99924.34;5100695;28;780;-50
2020/12/13 09:27:22;;;;;;;;;;;;;;;19.67;44.17;99921.72;5098366;28;1309;-49
2020/12/13 09:29:48;;;;;;;;;;;;;;;19.00;45.90;99923.34;5100149;28;839;-50
2020/12/13 09:32:13;;;;;;;;;;;;;;;20.24;43.02;99917.47;5099889;28;721;-51
2020/12/13 09:34:39;;;;;;;;;;;;;;;20.37;42.69;99916.56;5099448;28;1917;-50
2020/12/13 09:37:07;;;;;;;;;;;;;;;20.07;43.28;99915.47;5099947;28;806;-50
2020/12/13 09:39:32;;;;;;;;;;;;;;;19.84;43.84;99921.03;5100300;28;806;-50
2020/12/13 09:41:58;;;;;;;;;;;;;;;19.66;44.14;99914.56;5099591;28;743;-50
2020/12/13 09:44:23;;;;;;;;;;;;;;;19.06;45.73;99918.53;5100180;28;740;-50
2020/12/13 09:46:55;;;;;;;;;;;;;;;19.98;43.77;99912.66;5099648;28;799;-52
2020/12/13 09:49:21;;;;;;;;;;;;;;;20.40;42.58;99912.31;5099480;28;1028;-49
2020/12/13 09:51:47;;;;;;;;;;;;;;;20.10;43.27;99901.81;5099637;28;794;-50
2020/12/13 09:54:12;;;;;;;;;;;;;;;19.98;43.64;99915.44;5099308;28;1902;-49
2020/12/13 09:56:38;;;;;;;;;;;;;;;19.41;44.48;99902.25;5099592;28;747;-48
2020/12/13 09:59:03;;;;;;;;;;;;;;;19.76;44.37;99905.22;5098650;28;1239;-51
2020/12/13 10:01:29;;;;;;;;;;;;;;;20.51;42.49;99900.66;5099543;28;805;-50
2020/12/13 10:03:55;;;;;;;;;;;;;;;20.07;43.39;99904.41;5098923;28;918;-51
2020/12/13 10:11:20;;;;;;;;;;;;;;;19.23;45.21;99901.31;5099245;28;1465;-48
2020/12/13 10:13:45;;;;;;;;;;;;;;;19.09;45.69;99902.16;5099476;28;1910;-50
2020/12/13 10:16:11;;;;;;;;;;;;;;;19.47;44.87;99890.78;5118267;28;1176;-50
2020/12/13 10:18:36;;;;;;;;;;;;;;;19.67;44.31;99888.63;5118413;28;1051;-50
2020/12/13 10:21:02;;;;;;;;;;;;;;;19.62;44.18;99897.03;5099020;28;802;-47
2020/12/13 10:23:27;;;;;;;;;;;;;;;19.48;44.54;99889.63;5098835;28;817;-47
2020/12/13 10:25:53;;;;;;;;;;;;;;;19.40;44.87;99895.91;5098760;28;1051;-50
2020/12/13 10:28:18;;;;;;;;;;;;;;;20.04;43.63;99897.59;5098863;28;1440;-50
2020/12/13 10:30:44;;;;;;;;;;;;;;;20.56;42.10;99901.66;5097574;28;1054;-48
2020/12/13 10:33:09;;;;;;;;;;;;;;;20.21;42.97;99896.03;5097514;28;1234;-51
2020/12/13 10:35:38;;;;;;;;;;;;;;;19.96;43.53;99890.91;5098224;28;1969;-58
2020/12/13 10:38:03;;;;;;;;;;;;;;;19.47;44.66;99896.31;5098405;28;1127;-50
2020/12/13 10:40:29;;;;;;;;;;;;;;;19.68;44.17;99901.25;5099014;28;785;-50
2020/12/13 10:42:54;;;;;;;;;;;;;;;20.52;42.48;99884.88;5098893;28;799;-53
2020/12/13 10:45:20;;;;;;;;;;;;;;;20.04;43.54;99872.75;5098866;28;774;-53
2020/12/13 10:47:45;;;;;;;;;;;;;;;20.04;43.15;99874.69;5098682;28;751;-48
2020/12/13 10:50:10;;;;;;;;;;;;;;;19.68;44.00;99881.97;5098400;28;1017;-50
2020/12/13 10:52:36;;;;;;;;;;;;;;;19.29;45.30;99883.50;5098663;28;755;-51
2020/12/13 10:55:01;;;;;;;;;;;;;;;19.75;44.26;99885.06;5098364;28;1914;-52
2020/12/13 10:57:28;;;;;;;;;;;;;;;20.65;42.11;99886.72;5098554;28;811;-51
2020/12/13 10:59:53;;;;;;;;;;;;;;;20.05;43.43;99879.06;5098683;28;763;-50
2020/12/13 11:02:18;;;;;;;;;;;;;;;20.13;43.16;99878.28;5098482;28;847;-56
2020/12/13 11:04:44;;;;;;;;;;;;;;;19.56;44.23;99881.72;5097925;28;969;-48
2020/12/13 11:07:09;;;;;;;;;;;;;;;19.29;44.93;99880.75;5098198;28;823;-54
2020/12/13 11:09:35;;;;;;;;;;;;;;;19.11;45.78;99880.63;5098419;28;773;-49
2020/12/13 11:12:00;;;;;;;;;;;;;;;20.08;43.51;99882.00;5098170;28;806;-52
2020/12/13 11:14:25;;;;;;;;;;;;;;;20.42;42.32;99886.00;5102592;28;1917;-51
2020/12/13 11:16:51;;;;;;;;;;;;;;;20.10;43.14;99888.00;5118465;28;812;-47
2020/12/13 11:19:16;;;;;;;;;;;;;;;19.93;43.38;99882.44;5111033;28;1083;-52
2020/12/13 11:21:45;;;;;;;;;;;;;;;19.40;44.75;99893.16;5097908;28;997;-53
2020/12/13 11:24:10;;;;;;;;;;;;;;;19.89;43.85;99886.97;5097666;28;851;-50
2020/12/13 11:26:36;;;;;;;;;;;;;;;20.63;41.96;99896.44;5097785;28;787;-52
2020/12/13 11:29:01;;;;;;;;;;;;;;;20.08;43.38;99895.81;5098115;28;739;-53
2020/12/13 11:31:27;;;;;;;;;;;;;;;20.16;43.08;99892.28;5097900;28;725;-52
2020/12/13 11:33:52;;;;;;;;;;;;;;;19.69;44.14;99894.63;5097077;28;1991;-50
2020/12/13 11:36:17;;;;;;;;;;;;;;;19.24;45.25;99895.47;5097598;28;797;-59
2020/12/13 11:38:43;;;;;;;;;;;;;;;19.35;44.86;99897.97;5097290;28;831;-53
2020/12/13 11:41:08;;;;;;;;;;;;;;;20.04;43.57;99900.34;5096738;28;815;-52
2020/12/13 11:43:34;;;;;;;;;;;;;;;20.60;42.26;99908.16;5097358;28;751;-52
2020/12/13 11:45:59;;;;;;;;;;;;;;;20.23;42.94;99904.78;5097209;28;834;-52
2020/12/13 11:48:25;;;;;;;;;;;;;;;20.04;43.42;99905.88;5097493;28;751;-51
2020/12/13 11:50:52;;;;;;;;;;;;;;;19.41;44.65;99908.56;5096894;28;1001;-59
2020/12/13 11:53:17;;;;;;;;;;;;;;;19.08;45.67;99911.56;5097500;28;794;-49
2020/12/13 11:55:43;;;;;;;;;;;;;;;19.84;43.97;99918.28;5097257;28;1979;-48
2020/12/13 11:58:08;;;;;;;;;;;;;;;20.40;42.49;99921.44;5097719;28;901;-48
2020/12/13 12:00:34;;;;;;;;;;;;;;;20.08;43.31;99919.84;5097281;28;807;-47
2020/12/13 12:02:59;;;;;;;;;;;;;;;20.12;43.08;99920.84;5097130;28;854;-51
2020/12/13 12:05:25;;;;;;;;;;;;;;;19.51;44.56;99926.00;5096738;28;947;-56
2020/12/13 12:07:50;;;;;;;;;;;;;;;19.00;45.87;99931.59;5096791;28;1296;-51
2020/12/13 12:10:16;;;;;;;;;;;;;;;20.25;43.16;99930.16;5096989;28;739;-56
2020/12/13 12:12:41;;;;;;;;;;;;;;;20.28;42.66;99929.50;5096876;28;772;-53
2020/12/13 12:15:06;;;;;;;;;;;;;;;20.03;43.51;99931.81;5096742;28;1910;-49
2020/12/13 12:17:32;;;;;;;;;;;;;;;19.78;44.03;99928.59;5096895;28;748;-53
2020/12/13 12:19:57;;;;;;;;;;;;;;;19.55;44.52;99930.56;5096164;28;1022;-55
2020/12/13 12:22:23;;;;;;;;;;;;;;;19.41;44.75;99935.34;5097150;28;844;-55
2020/12/13 12:24:48;;;;;;;;;;;;;;;20.04;43.31;99935.41;5096820;28;831;-53
2020/12/13 12:27:14;;;;;;;;;;;;;;;20.82;41.58;99938.44;5096678;28;890;-52
2020/12/13 12:29:40;;;;;;;;;;;;;;;21.20;40.77;99924.00;5096933;28;763;-51
2020/12/13 12:32:05;;;;;;;;;;;;;;;20.49;42.25;99921.44;5096768;28;506;-52
2020/12/13 12:34:32;;;;;;;;;;;;;;;20.38;42.64;99928.41;5096217;28;1915;-56
2020/12/13 12:36:58;;;;;;;;;;;;;;;19.90;43.48;99936.31;5096847;28;836;-56
2020/12/13 12:39:25;;;;;;;;;;;;;;;19.30;44.71;99932.81;5096671;28;790;-55
2020/12/13 12:41:51;;;;;;;;;;;;;;;19.38;45.38;99938.72;5096375;28;833;-55
2020/12/13 12:44:16;;;;;;;;;;;;;;;20.46;42.39;99933.13;5096971;28;775;-56
2020/12/13 12:46:42;;;;;;;;;;;;;;;20.22;42.72;99941.81;5096563;28;740;-56
2020/12/13 12:49:07;;;;;;;;;;;;;;;20.13;43.09;99945.38;5096173;28;1012;-57
2020/12/13 12:51:33;;;;;;;;;;;;;;;19.81;43.85;99952.81;5096507;28;795;-53
2020/12/13 12:53:58;;;;;;;;;;;;;;;19.46;44.46;99947.06;5095665;28;1981;-55
2020/12/13 12:56:25;;;;;;;;;;;;;;;19.32;45.13;99952.63;5096318;28;775;-54
2020/12/13 12:58:58;;;;;;;;;;;;;;;20.35;42.80;99949.16;5096641;28;763;-56
2020/12/13 13:01:27;;;;;;;;;;;;;;;20.24;42.96;99953.34;5096010;28;858;-55
2020/12/13 13:03:59;;;;;;;;;;;;;;;19.91;43.66;99956.44;5095740;28;976;-57
2020/12/13 13:09:02;;;;;;;;;;;;;;;19.26;45.24;99967.63;5096222;28;763;-55
2020/12/13 13:11:38;;;;;;;;;;;;;;;20.34;42.55;99969.63;5096724;28;759;-50
2020/12/13 13:14:03;;;;;;;;;;;;;;;20.28;42.78;99976.44;5097433;28;1974;-51